Terminal Aerodrome Forecast
Issued by NWS

Home | Current Version | Previous Version | Text Only | Print | Product List | Glossary On
Versions: 1 2 3 4 5 6 7 8 9 10 11 12 13 14 15 16 17
000
FTUS41 KBGM 290551
TAFRME
TAF
KRME 290551Z 2906/3006 29005KT P6SM OVC025
      TEMPO 2906/2909 SCT025 OVC045
     FM291400 32010KT P6SM SCT050
     FM300000 VRB03KT P6SM SKC=

USA.gov is the U.S. government's official web portal to all federal, state and local government web resources and services.